CPA213 VHHH-ZGHA
Flight info
| Callsign | CPA213 |
|---|---|
| Flight time | 1h 23m |
| Altitude | 40100 |
| Route | BEKOL A461 YIN/K0863S1190 A461 MEXON MEX1W |
| Aircraft | A333/H-SDE3GHIJ2J3J5M1RVWXY/LB2D1 |
Departure
| Time | 2026-04-26 07:16 |
|---|---|
| Airport | Hong Kong International Airport (VHHH) |
Arrival
| Time | 2026-04-26 08:39 |
|---|---|
| Airport | Changsha Huanghua International Airport (ZGHA) |
| Time | Latitude | Longitude | Altitude | Speed | Heading |
|---|---|---|---|---|---|
| 2026-04-26 06:19 | 22.31430 | 113.92287 | 40 ft | 0 kts | 44° |
| 2026-04-26 07:04 | 22.31418 | 113.92275 | 40 ft | 4 kts | 44° |
| 2026-04-26 07:04 | 22.31403 | 113.92259 | 40 ft | 4 kts | 45° |
| 2026-04-26 07:04 | 22.31382 | 113.92239 | 40 ft | 0 kts | 21° |
| 2026-04-26 07:04 | 22.31375 | 113.92237 | 40 ft | 2 kts | 355° |
| 2026-04-26 07:05 | 22.31358 | 113.92248 | 40 ft | 5 kts | 298° |
| 2026-04-26 07:05 | 22.31356 | 113.92253 | 40 ft | 0 kts | 293° |
| 2026-04-26 07:09 | 22.31376 | 113.92190 | 40 ft | 18 kts | 273° |
| 2026-04-26 07:09 | 22.31273 | 113.92156 | 40 ft | 27 kts | 162° |
| 2026-04-26 07:09 | 22.31106 | 113.92213 | 40 ft | 29 kts | 160° |
| 2026-04-26 07:09 | 22.30948 | 113.92275 | 40 ft | 31 kts | 160° |
| 2026-04-26 07:10 | 22.30714 | 113.92609 | 40 ft | 29 kts | 71° |
| 2026-04-26 07:11 | 22.30829 | 113.92967 | 40 ft | 12 kts | 70° |
| 2026-04-26 07:11 | 22.30859 | 113.93052 | 40 ft | 15 kts | 71° |
| 2026-04-26 07:11 | 22.30850 | 113.93117 | 40 ft | 0 kts | 134° |
| 2026-04-26 07:12 | 22.30845 | 113.93123 | 40 ft | 6 kts | 136° |
| 2026-04-26 07:12 | 22.30753 | 113.93164 | 40 ft | 23 kts | 177° |
| 2026-04-26 07:13 | 22.30676 | 113.93090 | 40 ft | 1 kts | 249° |
| 2026-04-26 07:14 | 22.30676 | 113.93089 | 40 ft | 0 kts | 249° |
| 2026-04-26 07:15 | 22.30635 | 113.92969 | 40 ft | 46 kts | 252° |
| 2026-04-26 07:15 | 22.30474 | 113.92453 | 40 ft | 122 kts | 251° |
| 2026-04-26 07:15 | 22.30181 | 113.91537 | 54 ft | 182 kts | 251° |
| 2026-04-26 07:15 | 22.29791 | 113.90306 | 507 ft | 203 kts | 251° |
| 2026-04-26 07:16 | 22.29411 | 113.89020 | 1231 ft | 213 kts | 253° |
| 2026-04-26 07:16 | 22.28955 | 113.87575 | 1858 ft | 235 kts | 248° |
| 2026-04-26 07:16 | 22.28303 | 113.86115 | 2556 ft | 249 kts | 237° |
| 2026-04-26 07:16 | 22.27361 | 113.84802 | 3268 ft | 237 kts | 224° |
| 2026-04-26 07:17 | 22.26263 | 113.83790 | 3909 ft | 239 kts | 220° |
| 2026-04-26 07:17 | 22.24995 | 113.82552 | 4127 ft | 263 kts | 221° |
| 2026-04-26 07:17 | 22.23618 | 113.81311 | 4254 ft | 255 kts | 212° |
| 2026-04-26 07:17 | 22.21988 | 113.80617 | 4417 ft | 251 kts | 188° |
| 2026-04-26 07:18 | 22.20287 | 113.80701 | 4587 ft | 249 kts | 164° |
| 2026-04-26 07:18 | 22.18784 | 113.81535 | 4765 ft | 251 kts | 140° |
| 2026-04-26 07:18 | 22.17692 | 113.82980 | 4963 ft | 253 kts | 119° |
| 2026-04-26 07:18 | 22.17087 | 113.84662 | 5081 ft | 258 kts | 109° |
| 2026-04-26 07:19 | 22.16469 | 113.86391 | 4950 ft | 256 kts | 112° |
| 2026-04-26 07:19 | 22.15800 | 113.88097 | 4909 ft | 254 kts | 114° |
| 2026-04-26 07:19 | 22.15074 | 113.89790 | 4853 ft | 253 kts | 116° |
| 2026-04-26 07:19 | 22.14297 | 113.91479 | 4807 ft | 252 kts | 116° |
| 2026-04-26 07:20 | 22.13747 | 113.93158 | 5024 ft | 251 kts | 100° |
| 2026-04-26 07:20 | 22.13695 | 113.95001 | 5349 ft | 253 kts | 80° |
| 2026-04-26 07:20 | 22.14333 | 113.96741 | 5687 ft | 257 kts | 55° |
| 2026-04-26 07:20 | 22.15587 | 113.98147 | 6047 ft | 270 kts | 44° |
| 2026-04-26 07:21 | 22.16882 | 113.99535 | 6438 ft | 275 kts | 43° |
| 2026-04-26 07:21 | 22.18245 | 114.00864 | 6845 ft | 277 kts | 42° |
| 2026-04-26 07:21 | 22.19557 | 114.02382 | 7298 ft | 283 kts | 50° |
| 2026-04-26 07:21 | 22.20728 | 114.04050 | 7748 ft | 286 kts | 53° |
| 2026-04-26 07:22 | 22.21872 | 114.05713 | 8223 ft | 288 kts | 52° |
| 2026-04-26 07:22 | 22.23093 | 114.07330 | 8710 ft | 288 kts | 45° |
| 2026-04-26 07:22 | 22.24601 | 114.08668 | 9227 ft | 289 kts | 35° |
| 2026-04-26 07:22 | 22.26209 | 114.09892 | 9756 ft | 291 kts | 34° |
| 2026-04-26 07:23 | 22.27768 | 114.11042 | 10257 ft | 298 kts | 33° |
| 2026-04-26 07:23 | 22.29442 | 114.12230 | 10857 ft | 319 kts | 32° |
| 2026-04-26 07:23 | 22.31191 | 114.13420 | 11518 ft | 336 kts | 31° |
| 2026-04-26 07:23 | 22.33018 | 114.14716 | 11840 ft | 363 kts | 35° |
| 2026-04-26 07:24 | 22.34787 | 114.16316 | 11889 ft | 385 kts | 43° |
| 2026-04-26 07:24 | 22.36465 | 114.18245 | 11966 ft | 373 kts | 48° |
| 2026-04-26 07:24 | 22.38106 | 114.20188 | 12110 ft | 366 kts | 43° |
| 2026-04-26 07:24 | 22.40176 | 114.21766 | 12581 ft | 363 kts | 24° |
| 2026-04-26 07:25 | 22.42462 | 114.22549 | 13209 ft | 366 kts | 10° |
| 2026-04-26 07:25 | 22.44865 | 114.22672 | 13871 ft | 371 kts | 354° |
| 2026-04-26 07:25 | 22.47244 | 114.22115 | 14549 ft | 374 kts | 338° |
| 2026-04-26 07:25 | 22.49318 | 114.20737 | 15260 ft | 377 kts | 316° |
| 2026-04-26 07:26 | 22.50837 | 114.18733 | 15978 ft | 380 kts | 304° |
| 2026-04-26 07:26 | 22.52219 | 114.16670 | 16381 ft | 390 kts | 304° |
| 2026-04-26 07:26 | 22.53628 | 114.14565 | 16382 ft | 392 kts | 304° |
| 2026-04-26 07:26 | 22.55055 | 114.12425 | 16910 ft | 401 kts | 305° |
| 2026-04-26 07:27 | 22.56763 | 114.10532 | 17796 ft | 403 kts | 322° |
| 2026-04-26 07:27 | 22.58932 | 114.09296 | 18925 ft | 398 kts | 338° |
| 2026-04-26 07:27 | 22.61424 | 114.08733 | 19686 ft | 405 kts | 354° |
| 2026-04-26 07:27 | 22.63986 | 114.08485 | 20265 ft | 409 kts | 346° |
| 2026-04-26 07:28 | 22.66352 | 114.07560 | 20835 ft | 411 kts | 330° |
| 2026-04-26 07:28 | 22.68572 | 114.06107 | 20920 ft | 427 kts | 328° |
| 2026-04-26 07:28 | 22.70968 | 114.04810 | 21127 ft | 440 kts | 332° |
| 2026-04-26 07:28 | 22.73587 | 114.03448 | 21924 ft | 439 kts | 332° |
| 2026-04-26 07:29 | 22.76120 | 114.02140 | 22586 ft | 440 kts | 332° |
| 2026-04-26 07:29 | 22.78551 | 114.00887 | 22997 ft | 445 kts | 332° |
| 2026-04-26 07:29 | 22.81059 | 113.99597 | 23442 ft | 449 kts | 333° |
| 2026-04-26 07:29 | 22.83572 | 113.98303 | 23932 ft | 452 kts | 332° |
| 2026-04-26 07:30 | 22.86140 | 113.96980 | 24418 ft | 455 kts | 333° |
| 2026-04-26 07:30 | 22.88687 | 113.95667 | 24862 ft | 458 kts | 332° |
| 2026-04-26 07:30 | 22.91183 | 113.94285 | 25259 ft | 460 kts | 330° |
| 2026-04-26 07:30 | 22.93789 | 113.92969 | 25664 ft | 464 kts | 333° |
| 2026-04-26 07:31 | 22.96425 | 113.91626 | 26073 ft | 467 kts | 333° |
| 2026-04-26 07:31 | 22.98991 | 113.90303 | 26490 ft | 469 kts | 332° |
| 2026-04-26 07:31 | 23.01603 | 113.88947 | 26904 ft | 471 kts | 333° |
| 2026-04-26 07:31 | 23.04164 | 113.87614 | 27176 ft | 475 kts | 333° |
| 2026-04-26 07:32 | 23.06869 | 113.86205 | 27533 ft | 476 kts | 333° |
| 2026-04-26 07:32 | 23.09558 | 113.84851 | 27730 ft | 476 kts | 336° |
| 2026-04-26 07:32 | 23.12464 | 113.83704 | 27751 ft | 480 kts | 338° |
| 2026-04-26 07:32 | 23.15213 | 113.82629 | 27831 ft | 481 kts | 338° |
| 2026-04-26 07:33 | 23.17983 | 113.81542 | 28009 ft | 476 kts | 338° |
| 2026-04-26 07:33 | 23.20829 | 113.80424 | 28249 ft | 475 kts | 338° |
| 2026-04-26 07:33 | 23.23551 | 113.79353 | 28471 ft | 475 kts | 338° |
| 2026-04-26 07:33 | 23.26295 | 113.78274 | 28695 ft | 474 kts | 338° |
| 2026-04-26 07:34 | 23.28999 | 113.77209 | 28916 ft | 474 kts | 338° |
| 2026-04-26 07:34 | 23.31731 | 113.76132 | 29138 ft | 473 kts | 338° |
| 2026-04-26 07:34 | 23.34600 | 113.75002 | 29377 ft | 473 kts | 338° |
| 2026-04-26 07:34 | 23.37289 | 113.73944 | 29599 ft | 472 kts | 338° |
| 2026-04-26 07:35 | 23.39980 | 113.72882 | 29820 ft | 471 kts | 338° |
| 2026-04-26 07:35 | 23.42759 | 113.71787 | 30053 ft | 471 kts | 338° |
| 2026-04-26 07:35 | 23.45495 | 113.70705 | 30277 ft | 469 kts | 338° |
| 2026-04-26 07:35 | 23.48192 | 113.69640 | 30500 ft | 468 kts | 338° |
| 2026-04-26 07:36 | 23.50899 | 113.68571 | 30724 ft | 468 kts | 338° |
| 2026-04-26 07:36 | 23.53591 | 113.67506 | 31165 ft | 461 kts | 338° |
| 2026-04-26 07:36 | 23.56178 | 113.66486 | 31888 ft | 450 kts | 337° |
| 2026-04-26 07:36 | 23.58733 | 113.65475 | 32573 ft | 440 kts | 337° |
| 2026-04-26 07:37 | 23.61196 | 113.64502 | 33239 ft | 431 kts | 336° |
| 2026-04-26 07:37 | 23.63634 | 113.63536 | 33961 ft | 423 kts | 336° |
| 2026-04-26 07:37 | 23.66002 | 113.62598 | 34685 ft | 413 kts | 336° |
| 2026-04-26 07:37 | 23.68395 | 113.61650 | 35414 ft | 399 kts | 335° |
| 2026-04-26 07:38 | 23.70627 | 113.60767 | 36110 ft | 388 kts | 335° |
| 2026-04-26 07:38 | 23.72851 | 113.59882 | 36281 ft | 390 kts | 335° |
| 2026-04-26 07:38 | 23.75106 | 113.58985 | 36350 ft | 394 kts | 335° |
| 2026-04-26 07:38 | 23.77380 | 113.58083 | 36488 ft | 398 kts | 335° |
| 2026-04-26 07:39 | 23.79776 | 113.57130 | 36627 ft | 402 kts | 335° |
| 2026-04-26 07:39 | 23.82179 | 113.56176 | 36761 ft | 406 kts | 335° |
| 2026-04-26 07:39 | 23.84527 | 113.55242 | 36890 ft | 409 kts | 335° |
| 2026-04-26 07:39 | 23.86917 | 113.54293 | 37016 ft | 412 kts | 335° |
| 2026-04-26 07:40 | 23.89459 | 113.53283 | 37149 ft | 415 kts | 335° |
| 2026-04-26 07:40 | 23.91848 | 113.52333 | 37300 ft | 417 kts | 335° |
| 2026-04-26 07:40 | 23.94229 | 113.51385 | 37630 ft | 416 kts | 335° |
| 2026-04-26 07:40 | 23.96629 | 113.50432 | 37959 ft | 414 kts | 335° |
| 2026-04-26 07:41 | 23.98965 | 113.49502 | 38269 ft | 412 kts | 335° |
| 2026-04-26 07:41 | 24.01331 | 113.48559 | 38588 ft | 410 kts | 335° |
| 2026-04-26 07:41 | 24.03708 | 113.47611 | 38907 ft | 408 kts | 335° |
| 2026-04-26 07:42 | 24.08322 | 113.45770 | 38903 ft | 416 kts | 335° |
| 2026-04-26 07:42 | 24.13347 | 113.43764 | 38930 ft | 423 kts | 335° |
| 2026-04-26 07:43 | 24.18329 | 113.41849 | 38914 ft | 432 kts | 340° |
| 2026-04-26 07:43 | 24.20985 | 113.41402 | 38920 ft | 443 kts | 352° |
| 2026-04-26 07:43 | 24.23805 | 113.41512 | 38937 ft | 450 kts | 359° |
| 2026-04-26 07:44 | 24.29316 | 113.41821 | 38920 ft | 452 kts | 356° |
| 2026-04-26 07:44 | 24.35012 | 113.42027 | 38944 ft | 455 kts | 356° |
| 2026-04-26 07:45 | 24.40572 | 113.42179 | 38968 ft | 457 kts | 355° |
| 2026-04-26 07:45 | 24.46232 | 113.42337 | 38982 ft | 458 kts | 356° |
| 2026-04-26 07:46 | 24.51900 | 113.42498 | 39002 ft | 459 kts | 355° |
| 2026-04-26 07:46 | 24.57540 | 113.42657 | 38988 ft | 460 kts | 355° |
| 2026-04-26 07:47 | 24.63398 | 113.42825 | 38974 ft | 461 kts | 355° |
| 2026-04-26 07:47 | 24.69060 | 113.42984 | 38959 ft | 462 kts | 355° |
| 2026-04-26 07:48 | 24.75008 | 113.43155 | 38938 ft | 462 kts | 355° |
| 2026-04-26 07:48 | 24.80691 | 113.43314 | 38952 ft | 462 kts | 355° |
| 2026-04-26 07:49 | 24.86469 | 113.43479 | 38938 ft | 463 kts | 355° |
| 2026-04-26 07:49 | 24.92012 | 113.43637 | 38950 ft | 462 kts | 355° |
| 2026-04-26 07:50 | 25.00321 | 113.43874 | 38970 ft | 462 kts | 355° |
| 2026-04-26 07:50 | 25.05888 | 113.44030 | 38999 ft | 461 kts | 355° |
| 2026-04-26 07:51 | 25.11625 | 113.44195 | 38938 ft | 462 kts | 355° |
| 2026-04-26 07:51 | 25.17407 | 113.44363 | 38970 ft | 463 kts | 355° |
| 2026-04-26 07:52 | 25.23009 | 113.44522 | 38994 ft | 462 kts | 355° |
| 2026-04-26 07:52 | 25.28721 | 113.44687 | 38990 ft | 460 kts | 355° |
| 2026-04-26 07:53 | 25.34288 | 113.44849 | 38992 ft | 450 kts | 355° |
| 2026-04-26 07:53 | 25.39807 | 113.45004 | 38993 ft | 448 kts | 355° |
| 2026-04-26 07:54 | 25.46138 | 113.45187 | 39008 ft | 451 kts | 355° |
| 2026-04-26 07:54 | 25.51952 | 113.45353 | 39004 ft | 452 kts | 355° |
| 2026-04-26 07:55 | 25.57699 | 113.45520 | 38995 ft | 452 kts | 355° |
| 2026-04-26 07:55 | 25.63263 | 113.45679 | 38991 ft | 450 kts | 355° |
| 2026-04-26 07:56 | 25.68710 | 113.45836 | 39005 ft | 451 kts | 355° |
| 2026-04-26 07:56 | 25.74261 | 113.45998 | 39005 ft | 450 kts | 355° |
| 2026-04-26 07:57 | 25.79965 | 113.46162 | 38991 ft | 450 kts | 355° |
| 2026-04-26 07:57 | 25.85422 | 113.46320 | 38989 ft | 449 kts | 355° |
| 2026-04-26 07:58 | 25.91152 | 113.46493 | 38969 ft | 450 kts | 356° |
| 2026-04-26 07:58 | 25.96903 | 113.46673 | 38942 ft | 450 kts | 356° |
| 2026-04-26 07:59 | 26.02433 | 113.46844 | 38935 ft | 451 kts | 356° |
| 2026-04-26 07:59 | 26.07960 | 113.47016 | 38941 ft | 451 kts | 355° |
| 2026-04-26 08:00 | 26.13887 | 113.47201 | 38941 ft | 450 kts | 355° |
| 2026-04-26 08:00 | 26.19362 | 113.47371 | 38954 ft | 449 kts | 355° |
| 2026-04-26 08:01 | 26.24906 | 113.47543 | 38961 ft | 449 kts | 356° |
| 2026-04-26 08:01 | 26.30396 | 113.47716 | 38946 ft | 448 kts | 356° |
| 2026-04-26 08:02 | 26.35898 | 113.47887 | 38931 ft | 450 kts | 356° |
| 2026-04-26 08:02 | 26.41464 | 113.48061 | 38928 ft | 449 kts | 356° |
| 2026-04-26 08:03 | 26.47045 | 113.48235 | 38921 ft | 449 kts | 356° |
| 2026-04-26 08:03 | 26.52736 | 113.48415 | 38901 ft | 447 kts | 356° |
| 2026-04-26 08:04 | 26.58263 | 113.48587 | 38895 ft | 448 kts | 356° |
| 2026-04-26 08:04 | 26.63679 | 113.48759 | 38890 ft | 437 kts | 356° |
| 2026-04-26 08:05 | 26.68978 | 113.48924 | 38899 ft | 433 kts | 356° |
| 2026-04-26 08:05 | 26.74284 | 113.49091 | 38881 ft | 435 kts | 356° |
| 2026-04-26 08:06 | 26.79656 | 113.49259 | 38887 ft | 437 kts | 356° |
| 2026-04-26 08:06 | 26.85024 | 113.49430 | 38900 ft | 436 kts | 356° |
| 2026-04-26 08:07 | 26.90448 | 113.49599 | 38906 ft | 436 kts | 356° |
| 2026-04-26 08:07 | 26.95783 | 113.49769 | 38915 ft | 435 kts | 356° |
| 2026-04-26 08:08 | 27.01183 | 113.49939 | 38920 ft | 434 kts | 356° |
| 2026-04-26 08:08 | 27.06488 | 113.50106 | 38912 ft | 434 kts | 356° |
| 2026-04-26 08:09 | 27.12042 | 113.50283 | 38904 ft | 434 kts | 356° |
| 2026-04-26 08:09 | 27.17339 | 113.50451 | 38887 ft | 434 kts | 356° |
| 2026-04-26 08:10 | 27.22733 | 113.50620 | 38883 ft | 432 kts | 356° |
| 2026-04-26 08:10 | 27.27923 | 113.49778 | 38894 ft | 417 kts | 336° |
| 2026-04-26 08:11 | 27.32722 | 113.47902 | 38870 ft | 422 kts | 337° |
| 2026-04-26 08:11 | 27.37632 | 113.46084 | 38865 ft | 420 kts | 338° |
| 2026-04-26 08:12 | 27.42387 | 113.44338 | 38883 ft | 419 kts | 338° |
| 2026-04-26 08:12 | 27.47320 | 113.42531 | 38886 ft | 420 kts | 338° |
| 2026-04-26 08:13 | 27.52298 | 113.41423 | 38892 ft | 429 kts | 354° |
| 2026-04-26 08:13 | 27.57583 | 113.41478 | 38871 ft | 432 kts | 354° |
| 2026-04-26 08:14 | 27.62783 | 113.41440 | 38375 ft | 439 kts | 356° |
| 2026-04-26 08:14 | 27.65468 | 113.41769 | 36755 ft | 464 kts | 7° |
| 2026-04-26 08:14 | 27.68144 | 113.42706 | 35446 ft | 478 kts | 18° |
| 2026-04-26 08:15 | 27.70723 | 113.44350 | 34113 ft | 488 kts | 31° |
| 2026-04-26 08:15 | 27.72937 | 113.46393 | 32932 ft | 486 kts | 34° |
| 2026-04-26 08:15 | 27.75223 | 113.48223 | 31840 ft | 478 kts | 27° |
| 2026-04-26 08:15 | 27.77631 | 113.49937 | 30716 ft | 475 kts | 27° |
| 2026-04-26 08:16 | 27.80047 | 113.51629 | 29583 ft | 472 kts | 26° |
| 2026-04-26 08:16 | 27.82623 | 113.52951 | 28452 ft | 462 kts | 13° |
| 2026-04-26 08:16 | 27.85260 | 113.53526 | 27392 ft | 451 kts | 359° |
| 2026-04-26 08:16 | 27.87947 | 113.53565 | 26336 ft | 446 kts | 357° |
| 2026-04-26 08:17 | 27.90600 | 113.53782 | 25265 ft | 446 kts | 2° |
| 2026-04-26 08:17 | 27.93299 | 113.54041 | 24164 ft | 443 kts | 1° |
| 2026-04-26 08:17 | 27.95979 | 113.54282 | 23051 ft | 440 kts | 1° |
| 2026-04-26 08:17 | 27.98658 | 113.54522 | 21936 ft | 436 kts | 1° |
| 2026-04-26 08:18 | 28.01371 | 113.54761 | 20804 ft | 432 kts | 1° |
| 2026-04-26 08:18 | 28.04008 | 113.54999 | 19701 ft | 428 kts | 1° |
| 2026-04-26 08:18 | 28.06729 | 113.55239 | 18557 ft | 424 kts | 2° |
| 2026-04-26 08:18 | 28.09450 | 113.55482 | 17403 ft | 418 kts | 2° |
| 2026-04-26 08:19 | 28.12061 | 113.55693 | 16313 ft | 413 kts | 1° |
| 2026-04-26 08:19 | 28.14580 | 113.55862 | 15250 ft | 408 kts | 1° |
| 2026-04-26 08:19 | 28.17140 | 113.56039 | 14164 ft | 404 kts | 1° |
| 2026-04-26 08:19 | 28.19677 | 113.56215 | 13081 ft | 400 kts | 1° |
| 2026-04-26 08:20 | 28.22258 | 113.56393 | 12465 ft | 381 kts | 1° |
| 2026-04-26 08:20 | 28.24674 | 113.56561 | 12085 ft | 361 kts | 1° |
| 2026-04-26 08:20 | 28.26986 | 113.56722 | 11615 ft | 346 kts | 1° |
| 2026-04-26 08:20 | 28.29275 | 113.56882 | 11133 ft | 334 kts | 1° |
| 2026-04-26 08:21 | 28.31359 | 113.57025 | 10683 ft | 324 kts | 2° |
| 2026-04-26 08:21 | 28.33324 | 113.57162 | 10250 ft | 315 kts | 2° |
| 2026-04-26 08:21 | 28.35260 | 113.57297 | 9882 ft | 306 kts | 2° |
| 2026-04-26 08:21 | 28.37123 | 113.57427 | 9883 ft | 284 kts | 2° |
| 2026-04-26 08:22 | 28.38840 | 113.57547 | 9883 ft | 271 kts | 2° |
| 2026-04-26 08:22 | 28.40488 | 113.57813 | 9878 ft | 269 kts | 18° |
| 2026-04-26 08:22 | 28.41929 | 113.58760 | 9830 ft | 267 kts | 41° |
| 2026-04-26 08:22 | 28.42924 | 113.60301 | 9391 ft | 272 kts | 67° |
| 2026-04-26 08:23 | 28.43250 | 113.62138 | 8971 ft | 273 kts | 92° |
| 2026-04-26 08:23 | 28.42866 | 113.63967 | 8631 ft | 269 kts | 119° |
| 2026-04-26 08:23 | 28.41837 | 113.65351 | 8645 ft | 249 kts | 146° |
| 2026-04-26 08:23 | 28.40455 | 113.66020 | 8538 ft | 235 kts | 175° |
| 2026-04-26 08:24 | 28.39004 | 113.65964 | 8384 ft | 225 kts | 190° |
| 2026-04-26 08:24 | 28.37628 | 113.65752 | 8210 ft | 220 kts | 187° |
| 2026-04-26 08:24 | 28.36251 | 113.65606 | 8007 ft | 216 kts | 186° |
| 2026-04-26 08:24 | 28.34939 | 113.65484 | 7800 ft | 213 kts | 186° |
| 2026-04-26 08:25 | 28.33559 | 113.65359 | 7574 ft | 211 kts | 185° |
| 2026-04-26 08:25 | 28.32236 | 113.65237 | 7352 ft | 209 kts | 185° |
| 2026-04-26 08:25 | 28.30945 | 113.65118 | 7125 ft | 207 kts | 188° |
| 2026-04-26 08:25 | 28.29750 | 113.64608 | 6904 ft | 212 kts | 220° |
| 2026-04-26 08:26 | 28.28935 | 113.63316 | 6972 ft | 225 kts | 250° |
| 2026-04-26 08:26 | 28.28802 | 113.61662 | 6896 ft | 231 kts | 281° |
| 2026-04-26 08:26 | 28.29428 | 113.60175 | 6896 ft | 232 kts | 311° |
| 2026-04-26 08:26 | 28.30599 | 113.59249 | 6903 ft | 233 kts | 341° |
| 2026-04-26 08:27 | 28.32047 | 113.58979 | 6915 ft | 234 kts | 354° |
| 2026-04-26 08:27 | 28.33490 | 113.58571 | 6884 ft | 233 kts | 333° |
| 2026-04-26 08:27 | 28.34807 | 113.57867 | 6894 ft | 234 kts | 341° |
| 2026-04-26 08:27 | 28.36285 | 113.57571 | 6896 ft | 234 kts | 357° |
| 2026-04-26 08:28 | 28.37754 | 113.57554 | 6902 ft | 233 kts | 0° |
| 2026-04-26 08:28 | 28.39257 | 113.57597 | 6893 ft | 233 kts | 1° |
| 2026-04-26 08:28 | 28.40727 | 113.57446 | 6883 ft | 232 kts | 339° |
| 2026-04-26 08:28 | 28.41974 | 113.56518 | 6918 ft | 230 kts | 308° |
| 2026-04-26 08:29 | 28.42618 | 113.55037 | 6913 ft | 228 kts | 277° |
| 2026-04-26 08:29 | 28.42524 | 113.53435 | 6815 ft | 226 kts | 250° |
| 2026-04-26 08:29 | 28.41928 | 113.51913 | 6244 ft | 243 kts | 242° |
| 2026-04-26 08:29 | 28.41227 | 113.50326 | 5611 ft | 255 kts | 242° |
| 2026-04-26 08:30 | 28.40515 | 113.48695 | 5046 ft | 262 kts | 244° |
| 2026-04-26 08:30 | 28.40078 | 113.46934 | 4735 ft | 259 kts | 263° |
| 2026-04-26 08:30 | 28.40089 | 113.45077 | 4374 ft | 254 kts | 272° |
| 2026-04-26 08:30 | 28.40217 | 113.43246 | 4026 ft | 246 kts | 272° |
| 2026-04-26 08:31 | 28.40366 | 113.41381 | 3675 ft | 240 kts | 273° |
| 2026-04-26 08:31 | 28.40511 | 113.39675 | 3337 ft | 235 kts | 273° |
| 2026-04-26 08:31 | 28.40651 | 113.38022 | 3024 ft | 230 kts | 273° |
| 2026-04-26 08:31 | 28.40790 | 113.36415 | 2807 ft | 223 kts | 273° |
| 2026-04-26 08:32 | 28.40922 | 113.34873 | 2770 ft | 217 kts | 272° |
| 2026-04-26 08:32 | 28.40980 | 113.33327 | 2782 ft | 218 kts | 263° |
| 2026-04-26 08:32 | 28.40887 | 113.31769 | 2719 ft | 212 kts | 263° |
| 2026-04-26 08:32 | 28.40813 | 113.30251 | 2360 ft | 215 kts | 263° |
| 2026-04-26 08:33 | 28.40740 | 113.28688 | 2153 ft | 214 kts | 263° |
| 2026-04-26 08:33 | 28.40669 | 113.27143 | 2209 ft | 215 kts | 264° |
| 2026-04-26 08:33 | 28.40599 | 113.25616 | 2223 ft | 215 kts | 263° |
| 2026-04-26 08:33 | 28.40530 | 113.24059 | 2207 ft | 215 kts | 263° |
| 2026-04-26 08:34 | 28.40298 | 113.22599 | 2180 ft | 210 kts | 240° |
| 2026-04-26 08:34 | 28.39411 | 113.21442 | 2224 ft | 204 kts | 207° |
| 2026-04-26 08:34 | 28.38139 | 113.21062 | 2221 ft | 199 kts | 176° |
| 2026-04-26 08:34 | 28.36849 | 113.21231 | 2240 ft | 199 kts | 174° |
| 2026-04-26 08:35 | 28.35591 | 113.21332 | 2249 ft | 200 kts | 176° |
| 2026-04-26 08:35 | 28.34386 | 113.21412 | 2184 ft | 176 kts | 175° |
| 2026-04-26 08:35 | 28.33289 | 113.21483 | 2044 ft | 169 kts | 175° |
| 2026-04-26 08:35 | 28.32238 | 113.21549 | 1974 ft | 162 kts | 175° |
| 2026-04-26 08:36 | 28.31182 | 113.21613 | 2061 ft | 161 kts | 175° |
| 2026-04-26 08:36 | 28.30103 | 113.21679 | 1972 ft | 163 kts | 175° |
| 2026-04-26 08:36 | 28.29053 | 113.21743 | 1759 ft | 163 kts | 176° |
| 2026-04-26 08:36 | 28.27987 | 113.21808 | 1561 ft | 163 kts | 176° |
| 2026-04-26 08:37 | 28.26978 | 113.21869 | 1337 ft | 147 kts | 176° |
| 2026-04-26 08:37 | 28.26071 | 113.21927 | 1189 ft | 138 kts | 176° |
| 2026-04-26 08:37 | 28.25182 | 113.21980 | 1027 ft | 137 kts | 176° |
| 2026-04-26 08:37 | 28.24321 | 113.22031 | 869 ft | 132 kts | 176° |
| 2026-04-26 08:38 | 28.23458 | 113.22086 | 714 ft | 131 kts | 176° |
| 2026-04-26 08:38 | 28.22637 | 113.22137 | 571 ft | 131 kts | 177° |
| 2026-04-26 08:38 | 28.21797 | 113.22188 | 424 ft | 131 kts | 177° |
| 2026-04-26 08:38 | 28.20967 | 113.22239 | 283 ft | 131 kts | 177° |
| 2026-04-26 08:39 | 28.20148 | 113.22286 | 231 ft | 129 kts | 177° |
| 2026-04-26 08:39 | 28.19364 | 113.22332 | 230 ft | 104 kts | 173° |
| 2026-04-26 08:39 | 28.18877 | 113.22366 | 230 ft | 54 kts | 176° |
| 2026-04-26 08:39 | 28.18620 | 113.22382 | 230 ft | 35 kts | 177° |
| 2026-04-26 08:40 | 28.18390 | 113.22396 | 230 ft | 37 kts | 175° |
| 2026-04-26 08:40 | 28.18212 | 113.22368 | 230 ft | 26 kts | 233° |
| 2026-04-26 08:40 | 28.18203 | 113.22256 | 230 ft | 0 kts | 292° |
| 2026-04-26 08:43 | 28.18204 | 113.22253 | 230 ft | 4 kts | 294° |
| 2026-04-26 08:43 | 28.18289 | 113.22208 | 230 ft | 20 kts | 355° |
| 2026-04-26 08:43 | 28.18438 | 113.22200 | 230 ft | 24 kts | 356° |
| 2026-04-26 08:44 | 28.18616 | 113.22189 | 230 ft | 27 kts | 356° |
| 2026-04-26 08:44 | 28.18803 | 113.22177 | 230 ft | 31 kts | 356° |
| 2026-04-26 08:44 | 28.19018 | 113.22164 | 230 ft | 33 kts | 357° |
| 2026-04-26 08:44 | 28.19237 | 113.22150 | 229 ft | 34 kts | 356° |
| 2026-04-26 08:45 | 28.19454 | 113.22137 | 229 ft | 34 kts | 357° |
| 2026-04-26 08:45 | 28.19674 | 113.22124 | 229 ft | 34 kts | 356° |
| 2026-04-26 08:45 | 28.19894 | 113.22109 | 229 ft | 33 kts | 356° |
| 2026-04-26 08:45 | 28.20021 | 113.22099 | 229 ft | 0 kts | 355° |
| 2026-04-26 08:46 | 28.20070 | 113.22096 | 229 ft | 14 kts | 356° |
| 2026-04-26 08:46 | 28.20217 | 113.22089 | 229 ft | 30 kts | 359° |
| 2026-04-26 08:46 | 28.20435 | 113.22076 | 229 ft | 26 kts | 356° |
| 2026-04-26 08:46 | 28.20598 | 113.22029 | 229 ft | 19 kts | 293° |
| 2026-04-26 08:47 | 28.20601 | 113.21915 | 229 ft | 18 kts | 271° |
| 2026-04-26 08:47 | 28.20603 | 113.21784 | 229 ft | 9 kts | 268° |
| 2026-04-26 08:47 | 28.20577 | 113.21703 | 229 ft | 15 kts | 211° |
| 2026-04-26 08:47 | 28.20443 | 113.21695 | 229 ft | 26 kts | 177° |
| 2026-04-26 08:48 | 28.20242 | 113.21708 | 229 ft | 35 kts | 177° |
| 2026-04-26 08:48 | 28.20006 | 113.21722 | 229 ft | 39 kts | 176° |
| 2026-04-26 08:48 | 28.19795 | 113.21727 | 229 ft | 31 kts | 203° |
| 2026-04-26 08:48 | 28.19753 | 113.21664 | 229 ft | 8 kts | 226° |
| 2026-04-26 08:49 | 28.19696 | 113.21646 | 229 ft | 10 kts | 183° |
| 2026-04-26 08:49 | 28.19634 | 113.21648 | 229 ft | 9 kts | 177° |
| 2026-04-26 08:49 | 28.19617 | 113.21648 | 229 ft | 0 kts | 182° |
| 2026-04-26 08:49 | 28.19590 | 113.21638 | 229 ft | 6 kts | 221° |
| 2026-04-26 08:50 | 28.19580 | 113.21591 | 229 ft | 2 kts | 265° |
| 2026-04-26 08:50 | 28.19579 | 113.21578 | 229 ft | 0 kts | 265° |